sensor_id;sensor_type;location;lat;lon;timestamp;pressure;altitude;pressure_sealevel;temperature;humidity
83664;BME280;73634;47.068;15.426;2023-12-22T00:00:20;95407.22;;;6.21;80.97
83664;BME280;73634;47.068;15.426;2023-12-22T00:02:45;95361.13;;;5.97;81.93
83664;BME280;73634;47.068;15.426;2023-12-22T00:05:11;95339.66;;;5.88;81.93
83664;BME280;73634;47.068;15.426;2023-12-22T00:07:36;95346.84;;;5.69;82.87
83664;BME280;73634;47.068;15.426;2023-12-22T00:11:39;95344.19;;;5.52;84.06
83664;BME280;73634;47.068;15.426;2023-12-22T00:14:04;95317.47;;;5.48;84.34
83664;BME280;73634;47.068;15.426;2023-12-22T00:16:30;95303.47;;;5.40;84.18
83664;BME280;73634;47.068;15.426;2023-12-22T00:18:55;95309.38;;;5.41;84.20
83664;BME280;73634;47.068;15.426;2023-12-22T00:21:21;95318.09;;;5.31;84.48
83664;BME280;73634;47.068;15.426;2023-12-22T00:23:46;95328.72;;;5.29;84.57
83664;BME280;73634;47.068;15.426;2023-12-22T00:26:12;95347.13;;;5.14;84.95
83664;BME280;73634;47.068;15.426;2023-12-22T00:28:37;95365.97;;;5.01;85.57
83664;BME280;73634;47.068;15.426;2023-12-22T00:31:03;95381.53;;;4.96;86.26
83664;BME280;73634;47.068;15.426;2023-12-22T00:36:05;95378.84;;;4.79;86.41
83664;BME280;73634;47.068;15.426;2023-12-22T00:38:30;95355.19;;;4.77;87.08
83664;BME280;73634;47.068;15.426;2023-12-22T00:40:56;95321.81;;;4.72;86.70
83664;BME280;73634;47.068;15.426;2023-12-22T00:43:22;95267.34;;;4.64;87.39
83664;BME280;73634;47.068;15.426;2023-12-22T00:45:47;95260.25;;;5.15;81.80
83664;BME280;73634;47.068;15.426;2023-12-22T00:48:12;95292.19;;;5.05;83.49
83664;BME280;73634;47.068;15.426;2023-12-22T00:50:38;95311.69;;;4.97;82.85
83664;BME280;73634;47.068;15.426;2023-12-22T00:53:03;95353.38;;;4.99;83.33
83664;BME280;73634;47.068;15.426;2023-12-22T00:55:29;95388.16;;;4.88;83.95
83664;BME280;73634;47.068;15.426;2023-12-22T01:00:26;95404.25;;;4.94;83.31
83664;BME280;73634;47.068;15.426;2023-12-22T01:02:51;95435.06;;;5.13;80.44
83664;BME280;73634;47.068;15.426;2023-12-22T01:05:17;95447.78;;;5.31;78.04
83664;BME280;73634;47.068;15.426;2023-12-22T01:07:42;95435.16;;;5.44;77.05
83664;BME280;73634;47.068;15.426;2023-12-22T01:10:08;95442.31;;;5.47;76.86
83664;BME280;73634;47.068;15.426;2023-12-22T01:12:34;95463.28;;;5.54;75.91
83664;BME280;73634;47.068;15.426;2023-12-22T01:14:59;95484.97;;;5.53;75.84
83664;BME280;73634;47.068;15.426;2023-12-22T01:17:25;95494.81;;;5.51;76.32
83664;BME280;73634;47.068;15.426;2023-12-22T01:19:50;95513.16;;;5.49;76.63
83664;BME280;73634;47.068;15.426;2023-12-22T01:22:16;95517.75;;;5.52;76.63
83664;BME280;73634;47.068;15.426;2023-12-22T01:27:14;95486.78;;;5.52;76.90
83664;BME280;73634;47.068;15.426;2023-12-22T01:29:39;95494.06;;;5.50;76.69
83664;BME280;73634;47.068;15.426;2023-12-22T01:32:05;95486.63;;;5.49;76.71
83664;BME280;73634;47.068;15.426;2023-12-22T01:34:30;95507.72;;;5.51;76.08
83664;BME280;73634;47.068;15.426;2023-12-22T01:36:56;95531.88;;;5.55;75.88
83664;BME280;73634;47.068;15.426;2023-12-22T01:39:21;95527.78;;;5.54;75.82
83664;BME280;73634;47.068;15.426;2023-12-22T01:41:47;95542.97;;;5.55;76.39
83664;BME280;73634;47.068;15.426;2023-12-22T01:44:12;95542.66;;;5.57;75.98
83664;BME280;73634;47.068;15.426;2023-12-22T01:46:38;95543.72;;;5.56;76.00
83664;BME280;73634;47.068;15.426;2023-12-22T01:51:53;95535.63;;;5.49;77.03
83664;BME280;73634;47.068;15.426;2023-12-22T01:54:18;95550.13;;;5.45;76.70
83664;BME280;73634;47.068;15.426;2023-12-22T01:56:45;95544.78;;;5.41;77.43
83664;BME280;73634;47.068;15.426;2023-12-22T01:59:11;95551.47;;;5.42;77.68
83664;BME280;73634;47.068;15.426;2023-12-22T02:01:37;95559.50;;;5.41;77.21
83664;BME280;73634;47.068;15.426;2023-12-22T02:04:03;95556.94;;;5.41;77.93
83664;BME280;73634;47.068;15.426;2023-12-22T02:06:30;95534.47;;;5.41;77.09
83664;BME280;73634;47.068;15.426;2023-12-22T02:08:57;95542.22;;;5.41;77.10
83664;BME280;73634;47.068;15.426;2023-12-22T02:11:23;95544.78;;;5.41;77.11
83664;BME280;73634;47.068;15.426;2023-12-22T02:13:48;95545.47;;;5.33;78.35
83664;BME280;73634;47.068;15.426;2023-12-22T02:19:20;95582.38;;;5.20;79.91
83664;BME280;73634;47.068;15.426;2023-12-22T02:22:06;95611.88;;;5.14;80.45
83664;BME280;73634;47.068;15.426;2023-12-22T02:24:32;95650.03;;;5.12;80.21
83664;BME280;73634;47.068;15.426;2023-12-22T02:27:06;95651.28;;;5.14;79.89
83664;BME280;73634;47.068;15.426;2023-12-22T02:29:42;95668.94;;;5.21;79.24
83664;BME280;73634;47.068;15.426;2023-12-22T02:32:14;95652.41;;;5.22;79.27
83664;BME280;73634;47.068;15.426;2023-12-22T02:34:43;95626.19;;;5.20;79.48
83664;BME280;73634;47.068;15.426;2023-12-22T02:37:11;95614.03;;;5.20;80.08
83664;BME280;73634;47.068;15.426;2023-12-22T02:39:38;95609.47;;;5.17;79.55
83664;BME280;73634;47.068;15.426;2023-12-22T02:42:05;95584.75;;;5.16;79.12
83664;BME280;73634;47.068;15.426;2023-12-22T02:45:30;95562.41;;;5.12;79.33
83664;BME280;73634;47.068;15.426;2023-12-22T02:47:55;95574.44;;;5.02;80.29
83664;BME280;73634;47.068;15.426;2023-12-22T02:50:21;95576.34;;;4.97;80.13
83664;BME280;73634;47.068;15.426;2023-12-22T02:52:46;95572.53;;;4.94;79.55
83664;BME280;73634;47.068;15.426;2023-12-22T02:55:11;95579.09;;;4.87;78.83
83664;BME280;73634;47.068;15.426;2023-12-22T02:57:37;95594.84;;;4.85;77.58
83664;BME280;73634;47.068;15.426;2023-12-22T03:00:03;95598.94;;;4.86;77.65
83664;BME280;73634;47.068;15.426;2023-12-22T03:02:28;95605.22;;;4.80;77.26
83664;BME280;73634;47.068;15.426;2023-12-22T03:04:53;95598.56;;;4.79;77.69
83664;BME280;73634;47.068;15.426;2023-12-22T03:09:51;95605.34;;;4.75;77.06
83664;BME280;73634;47.068;15.426;2023-12-22T03:12:16;95595.59;;;4.72;77.10
83664;BME280;73634;47.068;15.426;2023-12-22T03:14:41;95613.44;;;4.68;77.01
83664;BME280;73634;47.068;15.426;2023-12-22T03:17:07;95610.09;;;4.68;76.72
83664;BME280;73634;47.068;15.426;2023-12-22T03:19:33;95618.66;;;4.63;76.41
83664;BME280;73634;47.068;15.426;2023-12-22T03:21:59;95615.13;;;4.59;76.78
83664;BME280;73634;47.068;15.426;2023-12-22T03:24:26;95617.78;;;4.54;77.42
83664;BME280;73634;47.068;15.426;2023-12-22T03:26:51;95630.16;;;4.52;77.15
83664;BME280;73634;47.068;15.426;2023-12-22T03:29:17;95630.84;;;4.58;76.98
83664;BME280;73634;47.068;15.426;2023-12-22T03:34:01;95626.94;;;4.60;75.58
83664;BME280;73634;47.068;15.426;2023-12-22T03:36:27;95600.44;;;4.60;75.21
83664;BME280;73634;47.068;15.426;2023-12-22T03:38:52;95627.53;;;4.57;75.04
83664;BME280;73634;47.068;15.426;2023-12-22T03:41:17;95622.66;;;4.56;75.88
83664;BME280;73634;47.068;15.426;2023-12-22T03:43:43;95637.78;;;4.44;76.05
83664;BME280;73634;47.068;15.426;2023-12-22T03:46:08;95636.53;;;4.41;76.80
83664;BME280;73634;47.068;15.426;2023-12-22T03:48:34;95626.81;;;4.38;76.33
83664;BME280;73634;47.068;15.426;2023-12-22T03:50:59;95641.50;;;4.38;76.77
83664;BME280;73634;47.068;15.426;2023-12-22T03:53:24;95667.72;;;4.40;76.35
83664;BME280;73634;47.068;15.426;2023-12-22T03:55:50;95656.06;;;4.42;75.55
83664;BME280;73634;47.068;15.426;2023-12-22T03:59:39;95668.75;;;4.39;75.87
83664;BME280;73634;47.068;15.426;2023-12-22T04:02:04;95658.25;;;4.35;76.60
83664;BME280;73634;47.068;15.426;2023-12-22T04:04:30;95673.22;;;4.33;76.21
83664;BME280;73634;47.068;15.426;2023-12-22T04:06:55;95688.19;;;4.31;76.03
83664;BME280;73634;47.068;15.426;2023-12-22T04:09:20;95695.69;;;4.27;76.72
83664;BME280;73634;47.068;15.426;2023-12-22T04:11:46;95704.47;;;4.26;76.51
83664;BME280;73634;47.068;15.426;2023-12-22T04:14:11;95718.59;;;4.29;75.31
83664;BME280;73634;47.068;15.426;2023-12-22T04:16:37;95706.53;;;4.43;71.08
83664;BME280;73634;47.068;15.426;2023-12-22T04:19:03;95718.63;;;4.43;73.94
83664;BME280;73634;47.068;15.426;2023-12-22T04:21:28;95711.59;;;4.48;70.28
83664;BME280;73634;47.068;15.426;2023-12-22T04:25:35;95710.97;;;4.75;65.86
83664;BME280;73634;47.068;15.426;2023-12-22T04:28:00;95712.59;;;4.85;63.89
83664;BME280;73634;47.068;15.426;2023-12-22T04:30:26;95717.03;;;4.98;60.44
83664;BME280;73634;47.068;15.426;2023-12-22T04:32:52;95736.78;;;5.02;60.47
83664;BME280;73634;47.068;15.426;2023-12-22T04:35:18;95739.66;;;5.01;60.02
83664;BME280;73634;47.068;15.426;2023-12-22T04:37:43;95739.16;;;4.99;61.19
83664;BME280;73634;47.068;15.426;2023-12-22T04:40:09;95769.91;;;4.95;61.67
83664;BME280;73634;47.068;15.426;2023-12-22T04:42:34;95753.75;;;4.90;61.90
83664;BME280;73634;47.068;15.426;2023-12-22T04:45:00;95737.31;;;4.86;62.44
83664;BME280;73634;47.068;15.426;2023-12-22T04:47:25;95722.41;;;4.83;62.17
83664;BME280;73634;47.068;15.426;2023-12-22T04:52:47;95706.16;;;4.68;63.71
83664;BME280;73634;47.068;15.426;2023-12-22T04:55:13;95711.75;;;4.57;64.81
83664;BME280;73634;47.068;15.426;2023-12-22T04:57:38;95733.25;;;4.47;65.20
83664;BME280;73634;47.068;15.426;2023-12-22T05:00:04;95683.91;;;4.40;65.37
83664;BME280;73634;47.068;15.426;2023-12-22T05:02:30;95695.63;;;4.32;66.35
83664;BME280;73634;47.068;15.426;2023-12-22T05:04:56;95709.13;;;4.24;66.77
83664;BME280;73634;47.068;15.426;2023-12-22T05:07:21;95687.34;;;4.17;66.96
83664;BME280;73634;47.068;15.426;2023-12-22T05:09:47;95685.88;;;4.11;66.72
83664;BME280;73634;47.068;15.426;2023-12-22T05:12:13;95712.72;;;4.05;66.64
83664;BME280;73634;47.068;15.426;2023-12-22T05:17:36;95701.44;;;4.00;66.76
83664;BME280;73634;47.068;15.426;2023-12-22T05:20:01;95703.06;;;3.96;66.92
83664;BME280;73634;47.068;15.426;2023-12-22T05:22:27;95692.78;;;3.96;66.29
83664;BME280;73634;47.068;15.426;2023-12-22T05:24:55;95684.84;;;3.93;67.15
83664;BME280;73634;47.068;15.426;2023-12-22T05:27:20;95670.22;;;3.88;67.31
83664;BME280;73634;47.068;15.426;2023-12-22T05:29:46;95652.22;;;3.88;68.49
83664;BME280;73634;47.068;15.426;2023-12-22T05:32:11;95673.84;;;3.87;67.53
83664;BME280;73634;47.068;15.426;2023-12-22T05:34:36;95682.31;;;3.88;67.34
83664;BME280;73634;47.068;15.426;2023-12-22T05:37:02;95682.81;;;3.90;67.72
83664;BME280;73634;47.068;15.426;2023-12-22T05:39:27;95679.47;;;3.89;68.20
83664;BME280;73634;47.068;15.426;2023-12-22T05:41:52;95701.31;;;3.92;67.39
83664;BME280;73634;47.068;15.426;2023-12-22T05:46:47;95702.84;;;4.12;65.44
83664;BME280;73634;47.068;15.426;2023-12-22T05:49:12;95709.25;;;4.14;65.66
83664;BME280;73634;47.068;15.426;2023-12-22T05:51:39;95699.16;;;4.18;65.24
83664;BME280;73634;47.068;15.426;2023-12-22T05:54:06;95708.34;;;4.24;64.69
83664;BME280;73634;47.068;15.426;2023-12-22T05:56:32;95715.44;;;4.32;64.25
83664;BME280;73634;47.068;15.426;2023-12-22T05:58:58;95728.09;;;4.47;63.15
83664;BME280;73634;47.068;15.426;2023-12-22T06:01:23;95733.25;;;4.47;63.66
83664;BME280;73634;47.068;15.426;2023-12-22T06:03:48;95733.66;;;4.54;63.32
83664;BME280;73634;47.068;15.426;2023-12-22T06:06:14;95731.09;;;4.54;63.15
83664;BME280;73634;47.068;15.426;2023-12-22T06:08:39;95740.41;;;4.50;63.66
83664;BME280;73634;47.068;15.426;2023-12-22T06:12:28;95746.59;;;4.49;64.01
83664;BME280;73634;47.068;15.426;2023-12-22T06:14:54;95744.25;;;4.53;64.28
83664;BME280;73634;47.068;15.426;2023-12-22T06:17:19;95742.66;;;4.57;63.85
83664;BME280;73634;47.068;15.426;2023-12-22T06:19:44;95750.16;;;4.53;65.57
83664;BME280;73634;47.068;15.426;2023-12-22T06:22:10;95760.59;;;4.43;67.22
83664;BME280;73634;47.068;15.426;2023-12-22T06:24:35;95756.66;;;4.32;68.42
83664;BME280;73634;47.068;15.426;2023-12-22T06:27:03;95751.41;;;4.18;69.59
83664;BME280;73634;47.068;15.426;2023-12-22T06:29:29;95749.66;;;4.14;70.23
83664;BME280;73634;47.068;15.426;2023-12-22T06:31:55;95762.47;;;4.19;70.29
83664;BME280;73634;47.068;15.426;2023-12-22T06:36:58;95761.47;;;4.15;70.25
83664;BME280;73634;47.068;15.426;2023-12-22T06:39:23;95759.75;;;4.10;70.62
83664;BME280;73634;47.068;15.426;2023-12-22T06:41:49;95756.81;;;3.98;70.87
83664;BME280;73634;47.068;15.426;2023-12-22T06:44:15;95760.44;;;3.97;71.00
83664;BME280;73634;47.068;15.426;2023-12-22T06:46:40;95778.16;;;3.98;71.32
83664;BME280;73634;47.068;15.426;2023-12-22T06:49:05;95770.72;;;3.97;71.27
83664;BME280;73634;47.068;15.426;2023-12-22T06:51:31;95780.75;;;3.98;71.23
83664;BME280;73634;47.068;15.426;2023-12-22T06:54:00;95793.25;;;4.05;70.83
83664;BME280;73634;47.068;15.426;2023-12-22T06:56:27;95789.91;;;4.05;70.71
83664;BME280;73634;47.068;15.426;2023-12-22T06:58:54;95791.66;;;4.09;71.37
83664;BME280;73634;47.068;15.426;2023-12-22T07:02:28;95810.00;;;4.26;70.38
83664;BME280;73634;47.068;15.426;2023-12-22T07:07:36;95816.47;;;4.24;70.07
83664;BME280;73634;47.068;15.426;2023-12-22T07:10:02;95833.16;;;4.26;70.72
83664;BME280;73634;47.068;15.426;2023-12-22T07:12:27;95841.09;;;4.30;70.72
83664;BME280;73634;47.068;15.426;2023-12-22T07:14:53;95857.66;;;4.24;71.32
83664;BME280;73634;47.068;15.426;2023-12-22T07:17:19;95855.34;;;4.22;71.45
83664;BME280;73634;47.068;15.426;2023-12-22T07:19:44;95828.28;;;4.25;71.21
83664;BME280;73634;47.068;15.426;2023-12-22T07:22:10;95824.69;;;4.26;71.73
83664;BME280;73634;47.068;15.426;2023-12-22T07:27:32;95821.56;;;4.29;72.32
83664;BME280;73634;47.068;15.426;2023-12-22T07:29:58;95814.66;;;4.24;72.06
83664;BME280;73634;47.068;15.426;2023-12-22T07:32:23;95808.78;;;4.19;72.56
83664;BME280;73634;47.068;15.426;2023-12-22T07:34:49;95808.25;;;4.22;73.10
83664;BME280;73634;47.068;15.426;2023-12-22T07:37:14;95819.84;;;4.19;73.19
83664;BME280;73634;47.068;15.426;2023-12-22T07:42:06;95809.22;;;4.26;73.91
83664;BME280;73634;47.068;15.426;2023-12-22T07:44:32;95811.81;;;4.26;73.56
83664;BME280;73634;47.068;15.426;2023-12-22T07:47:00;95826.22;;;4.27;73.89
83664;BME280;73634;47.068;15.426;2023-12-22T07:49:26;95823.16;;;4.25;74.32
83664;BME280;73634;47.068;15.426;2023-12-22T07:52:58;95811.91;;;4.16;73.83
83664;BME280;73634;47.068;15.426;2023-12-22T07:55:23;95810.88;;;4.17;74.10
83664;BME280;73634;47.068;15.426;2023-12-22T07:57:49;95823.75;;;4.17;74.31
83664;BME280;73634;47.068;15.426;2023-12-22T08:00:16;95813.19;;;4.18;74.01
83664;BME280;73634;47.068;15.426;2023-12-22T08:02:42;95802.16;;;4.13;74.43
83664;BME280;73634;47.068;15.426;2023-12-22T08:05:07;95815.03;;;4.13;75.39
83664;BME280;73634;47.068;15.426;2023-12-22T08:07:33;95825.06;;;4.14;75.67
83664;BME280;73634;47.068;15.426;2023-12-22T08:09:58;95826.91;;;4.09;75.81
83664;BME280;73634;47.068;15.426;2023-12-22T08:12:24;95860.06;;;4.15;75.06
83664;BME280;73634;47.068;15.426;2023-12-22T08:17:24;95852.88;;;4.12;76.16
83664;BME280;73634;47.068;15.426;2023-12-22T08:19:49;95841.00;;;4.16;75.91
83664;BME280;73634;47.068;15.426;2023-12-22T08:22:15;95846.19;;;4.11;76.28
83664;BME280;73634;47.068;15.426;2023-12-22T08:24:40;95855.22;;;4.09;76.21
83664;BME280;73634;47.068;15.426;2023-12-22T08:27:07;95843.06;;;4.14;76.71
83664;BME280;73634;47.068;15.426;2023-12-22T08:29:32;95880.63;;;4.15;77.03
83664;BME280;73634;47.068;15.426;2023-12-22T08:31:58;95883.59;;;4.03;77.75
83664;BME280;73634;47.068;15.426;2023-12-22T08:34:23;95859.34;;;4.10;77.69
83664;BME280;73634;47.068;15.426;2023-12-22T08:36:49;95843.41;;;4.08;78.14
83664;BME280;73634;47.068;15.426;2023-12-22T08:42:04;95856.22;;;3.89;79.79
83664;BME280;73634;47.068;15.426;2023-12-22T08:44:30;95874.91;;;3.99;79.61
83664;BME280;73634;47.068;15.426;2023-12-22T08:46:55;95885.03;;;4.15;78.77
83664;BME280;73634;47.068;15.426;2023-12-22T08:49:21;95884.97;;;4.20;78.06
83664;BME280;73634;47.068;15.426;2023-12-22T08:51:46;95881.31;;;4.26;77.55
83664;BME280;73634;47.068;15.426;2023-12-22T08:54:12;95880.44;;;4.35;77.75
83664;BME280;73634;47.068;15.426;2023-12-22T08:56:37;95874.44;;;4.40;78.31
83664;BME280;73634;47.068;15.426;2023-12-22T08:59:02;95869.00;;;4.42;78.16
83664;BME280;73634;47.068;15.426;2023-12-22T09:01:28;95865.53;;;4.32;79.05
83664;BME280;73634;47.068;15.426;2023-12-22T09:06:31;95855.50;;;4.31;78.62
83664;BME280;73634;47.068;15.426;2023-12-22T09:08:56;95858.63;;;4.28;78.55
83664;BME280;73634;47.068;15.426;2023-12-22T09:11:21;95849.84;;;4.05;79.90
83664;BME280;73634;47.068;15.426;2023-12-22T09:13:47;95831.34;;;4.03;80.37
83664;BME280;73634;47.068;15.426;2023-12-22T09:16:12;95842.00;;;3.96;81.01
83664;BME280;73634;47.068;15.426;2023-12-22T09:18:40;95860.06;;;3.91;81.23
83664;BME280;73634;47.068;15.426;2023-12-22T09:21:06;95865.44;;;3.95;80.50
83664;BME280;73634;47.068;15.426;2023-12-22T09:23:32;95865.53;;;3.85;81.68
83664;BME280;73634;47.068;15.426;2023-12-22T09:25:57;95881.19;;;3.88;81.46
83664;BME280;73634;47.068;15.426;2023-12-22T09:28:23;95873.41;;;3.93;81.63
83664;BME280;73634;47.068;15.426;2023-12-22T09:32:27;95844.34;;;3.93;82.26
83664;BME280;73634;47.068;15.426;2023-12-22T09:34:52;95830.72;;;3.92;80.80
83664;BME280;73634;47.068;15.426;2023-12-22T09:37:18;95856.13;;;3.99;80.19
83664;BME280;73634;47.068;15.426;2023-12-22T09:39:43;95872.47;;;4.08;79.46
83664;BME280;73634;47.068;15.426;2023-12-22T09:42:08;95882.44;;;4.15;80.16
83664;BME280;73634;47.068;15.426;2023-12-22T09:44:36;95887.88;;;4.13;80.81
83664;BME280;73634;47.068;15.426;2023-12-22T09:47:04;95892.53;;;4.11;80.61
83664;BME280;73634;47.068;15.426;2023-12-22T09:49:32;95904.53;;;4.21;80.38
83664;BME280;73634;47.068;15.426;2023-12-22T09:51:58;95888.97;;;4.31;80.37
83664;BME280;73634;47.068;15.426;2023-12-22T09:54:24;95853.41;;;4.09;80.83
83664;BME280;73634;47.068;15.426;2023-12-22T09:58:39;95905.97;;;4.32;80.58
83664;BME280;73634;47.068;15.426;2023-12-22T10:01:04;95891.81;;;4.29;80.51
83664;BME280;73634;47.068;15.426;2023-12-22T10:03:33;95881.47;;;4.34;80.36
83664;BME280;73634;47.068;15.426;2023-12-22T10:05:59;95866.59;;;4.02;81.62
83664;BME280;73634;47.068;15.426;2023-12-22T10:10:50;95900.72;;;4.13;82.65
83664;BME280;73634;47.068;15.426;2023-12-22T10:13:17;95894.06;;;4.12;81.88
83664;BME280;73634;47.068;15.426;2023-12-22T10:15:43;95931.03;;;4.21;82.01
83664;BME280;73634;47.068;15.426;2023-12-22T10:18:10;95934.88;;;4.24;80.90
83664;BME280;73634;47.068;15.426;2023-12-22T10:23:07;95958.44;;;4.36;81.12
83664;BME280;73634;47.068;15.426;2023-12-22T10:25:33;95991.28;;;4.44;80.96
83664;BME280;73634;47.068;15.426;2023-12-22T10:27:58;95958.84;;;4.43;79.13
83664;BME280;73634;47.068;15.426;2023-12-22T10:30:24;95900.69;;;4.42;78.40
83664;BME280;73634;47.068;15.426;2023-12-22T10:32:51;95946.84;;;4.39;78.64
83664;BME280;73634;47.068;15.426;2023-12-22T10:35:22;95908.34;;;4.47;78.08
83664;BME280;73634;47.068;15.426;2023-12-22T10:37:48;95923.56;;;4.44;78.61
83664;BME280;73634;47.068;15.426;2023-12-22T10:40:17;95914.53;;;4.46;76.70
83664;BME280;73634;47.068;15.426;2023-12-22T10:42:43;95875.78;;;4.56;78.80
83664;BME280;73634;47.068;15.426;2023-12-22T10:47:18;95864.06;;;4.69;76.21
83664;BME280;73634;47.068;15.426;2023-12-22T10:49:46;95832.25;;;4.79;73.64
83664;BME280;73634;47.068;15.426;2023-12-22T10:52:18;95869.69;;;4.90;75.58
83664;BME280;73634;47.068;15.426;2023-12-22T10:54:44;95885.50;;;5.02;75.06
83664;BME280;73634;47.068;15.426;2023-12-22T10:57:11;95882.16;;;5.01;75.07
83664;BME280;73634;47.068;15.426;2023-12-22T10:59:40;95882.31;;;5.10;74.80
83664;BME280;73634;47.068;15.426;2023-12-22T11:02:15;95844.66;;;5.28;73.21
83664;BME280;73634;47.068;15.426;2023-12-22T11:04:41;95848.63;;;5.39;73.53
83664;BME280;73634;47.068;15.426;2023-12-22T11:07:09;95846.81;;;5.40;72.24
83664;BME280;73634;47.068;15.426;2023-12-22T11:11:45;95822.63;;;5.35;71.96
83664;BME280;73634;47.068;15.426;2023-12-22T11:14:12;95830.75;;;5.43;72.48
83664;BME280;73634;47.068;15.426;2023-12-22T11:16:41;95813.34;;;5.34;71.47
83664;BME280;73634;47.068;15.426;2023-12-22T11:19:11;95814.88;;;5.35;71.54
83664;BME280;73634;47.068;15.426;2023-12-22T11:21:37;95809.16;;;5.39;71.33
83664;BME280;73634;47.068;15.426;2023-12-22T11:24:04;95814.00;;;5.26;71.98
83664;BME280;73634;47.068;15.426;2023-12-22T11:26:31;95808.53;;;5.14;71.85
83664;BME280;73634;47.068;15.426;2023-12-22T11:28:56;95811.88;;;5.15;71.01
83664;BME280;73634;47.068;15.426;2023-12-22T11:31:23;95809.44;;;5.05;72.12
83664;BME280;73634;47.068;15.426;2023-12-22T11:33:50;95829.72;;;5.11;72.75
83664;BME280;73634;47.068;15.426;2023-12-22T11:38:48;95851.44;;;4.86;77.71
83664;BME280;73634;47.068;15.426;2023-12-22T11:41:26;95855.75;;;4.53;79.79
83664;BME280;73634;47.068;15.426;2023-12-22T11:43:53;95863.41;;;4.40;80.17
83664;BME280;73634;47.068;15.426;2023-12-22T11:46:19;95892.47;;;4.40;81.48
83664;BME280;73634;47.068;15.426;2023-12-22T11:48:47;95859.38;;;4.52;81.39
83664;BME280;73634;47.068;15.426;2023-12-22T11:51:13;95853.78;;;4.45;80.71
83664;BME280;73634;47.068;15.426;2023-12-22T11:53:39;95824.06;;;4.34;81.22
83664;BME280;73634;47.068;15.426;2023-12-22T11:56:06;95824.34;;;4.51;81.39
